sensor_id;sensor_type;location;lat;lon;timestamp;temperature;humidity
7970;DHT22;4030;52.362;9.206;2023-08-21T00:01:30;23.70;76.80
7970;DHT22;4030;52.362;9.206;2023-08-21T00:03:56;23.60;76.70
7970;DHT22;4030;52.362;9.206;2023-08-21T00:06:22;23.60;76.80
7970;DHT22;4030;52.362;9.206;2023-08-21T00:08:48;23.60;76.80
7970;DHT22;4030;52.362;9.206;2023-08-21T00:11:13;23.60;76.90
7970;DHT22;4030;52.362;9.206;2023-08-21T00:13:39;23.50;76.80
7970;DHT22;4030;52.362;9.206;2023-08-21T00:16:05;23.50;77.00
7970;DHT22;4030;52.362;9.206;2023-08-21T00:18:31;23.50;77.10
7970;DHT22;4030;52.362;9.206;2023-08-21T00:20:56;23.40;77.10
7970;DHT22;4030;52.362;9.206;2023-08-21T00:23:22;23.40;77.10
7970;DHT22;4030;52.362;9.206;2023-08-21T00:25:48;23.40;77.20
7970;DHT22;4030;52.362;9.206;2023-08-21T00:28:14;23.40;77.20
7970;DHT22;4030;52.362;9.206;2023-08-21T00:30:41;23.40;77.30
7970;DHT22;4030;52.362;9.206;2023-08-21T00:33:07;23.30;77.10
7970;DHT22;4030;52.362;9.206;2023-08-21T00:35:32;23.30;77.20
7970;DHT22;4030;52.362;9.206;2023-08-21T00:37:58;23.30;77.40
7970;DHT22;4030;52.362;9.206;2023-08-21T00:40:24;23.20;77.40
7970;DHT22;4030;52.362;9.206;2023-08-21T00:42:49;23.20;77.50
7970;DHT22;4030;52.362;9.206;2023-08-21T00:45:15;23.20;77.50
7970;DHT22;4030;52.362;9.206;2023-08-21T00:47:42;23.20;77.50
7970;DHT22;4030;52.362;9.206;2023-08-21T00:50:09;23.10;77.50
7970;DHT22;4030;52.362;9.206;2023-08-21T00:52:38;23.10;77.50
7970;DHT22;4030;52.362;9.206;2023-08-21T00:55:06;23.00;77.40
7970;DHT22;4030;52.362;9.206;2023-08-21T00:57:33;23.00;77.60
7970;DHT22;4030;52.362;9.206;2023-08-21T01:00:00;23.00;77.60
7970;DHT22;4030;52.362;9.206;2023-08-21T01:02:26;22.90;77.60
7970;DHT22;4030;52.362;9.206;2023-08-21T01:04:52;23.00;77.70
7970;DHT22;4030;52.362;9.206;2023-08-21T01:07:18;22.90;77.70
7970;DHT22;4030;52.362;9.206;2023-08-21T01:09:50;23.00;77.80
7970;DHT22;4030;52.362;9.206;2023-08-21T01:15:07;22.90;77.90
7970;DHT22;4030;52.362;9.206;2023-08-21T01:17:37;22.80;77.80
7970;DHT22;4030;52.362;9.206;2023-08-21T01:20:10;22.80;77.20
7970;DHT22;4030;52.362;9.206;2023-08-21T01:22:38;22.70;78.00
7970;DHT22;4030;52.362;9.206;2023-08-21T01:25:05;22.70;78.00
7970;DHT22;4030;52.362;9.206;2023-08-21T01:27:33;22.70;78.30
7970;DHT22;4030;52.362;9.206;2023-08-21T01:30:00;22.70;78.30
7970;DHT22;4030;52.362;9.206;2023-08-21T01:35:27;22.60;78.40
7970;DHT22;4030;52.362;9.206;2023-08-21T01:37:54;22.60;78.60
7970;DHT22;4030;52.362;9.206;2023-08-21T01:40:22;22.60;78.70
7970;DHT22;4030;52.362;9.206;2023-08-21T01:42:48;22.60;78.80
7970;DHT22;4030;52.362;9.206;2023-08-21T01:45:14;22.50;78.80
7970;DHT22;4030;52.362;9.206;2023-08-21T01:47:40;22.50;78.70
7970;DHT22;4030;52.362;9.206;2023-08-21T01:50:06;22.50;78.90
7970;DHT22;4030;52.362;9.206;2023-08-21T01:52:32;22.50;78.90
7970;DHT22;4030;52.362;9.206;2023-08-21T01:54:58;22.40;78.90
7970;DHT22;4030;52.362;9.206;2023-08-21T01:57:24;22.40;78.90
7970;DHT22;4030;52.362;9.206;2023-08-21T01:59:50;22.40;79.00
7970;DHT22;4030;52.362;9.206;2023-08-21T02:02:16;22.40;79.10
7970;DHT22;4030;52.362;9.206;2023-08-21T02:04:41;22.40;79.10
7970;DHT22;4030;52.362;9.206;2023-08-21T02:07:07;22.40;79.20
7970;DHT22;4030;52.362;9.206;2023-08-21T02:09:33;22.40;79.20
7970;DHT22;4030;52.362;9.206;2023-08-21T02:11:59;22.30;79.30
7970;DHT22;4030;52.362;9.206;2023-08-21T02:14:24;22.30;79.30
7970;DHT22;4030;52.362;9.206;2023-08-21T02:16:50;22.30;79.50
7970;DHT22;4030;52.362;9.206;2023-08-21T02:19:16;22.30;79.50
7970;DHT22;4030;52.362;9.206;2023-08-21T02:21:42;22.30;79.50
7970;DHT22;4030;52.362;9.206;2023-08-21T02:24:07;22.30;79.50
7970;DHT22;4030;52.362;9.206;2023-08-21T02:26:33;22.30;79.70
7970;DHT22;4030;52.362;9.206;2023-08-21T02:28:59;22.30;79.70
7970;DHT22;4030;52.362;9.206;2023-08-21T02:31:25;22.30;79.80
7970;DHT22;4030;52.362;9.206;2023-08-21T02:33:50;22.20;79.70
7970;DHT22;4030;52.362;9.206;2023-08-21T02:36:16;22.20;79.80
7970;DHT22;4030;52.362;9.206;2023-08-21T02:38:42;22.20;79.80
7970;DHT22;4030;52.362;9.206;2023-08-21T02:41:08;22.20;79.80
7970;DHT22;4030;52.362;9.206;2023-08-21T02:43:34;22.20;79.80
7970;DHT22;4030;52.362;9.206;2023-08-21T02:45:59;22.20;79.80
7970;DHT22;4030;52.362;9.206;2023-08-21T02:48:25;22.20;79.90
7970;DHT22;4030;52.362;9.206;2023-08-21T02:50:51;22.20;80.00
7970;DHT22;4030;52.362;9.206;2023-08-21T02:53:17;22.20;80.00
7970;DHT22;4030;52.362;9.206;2023-08-21T02:55:43;22.20;80.10
7970;DHT22;4030;52.362;9.206;2023-08-21T02:58:08;22.10;80.00
7970;DHT22;4030;52.362;9.206;2023-08-21T03:00:35;22.10;80.10
7970;DHT22;4030;52.362;9.206;2023-08-21T03:03:01;22.10;80.20
7970;DHT22;4030;52.362;9.206;2023-08-21T03:05:27;22.10;80.20
7970;DHT22;4030;52.362;9.206;2023-08-21T03:07:52;22.10;80.30
7970;DHT22;4030;52.362;9.206;2023-08-21T03:10:18;22.10;80.30
7970;DHT22;4030;52.362;9.206;2023-08-21T03:12:44;22.10;81.30
7970;DHT22;4030;52.362;9.206;2023-08-21T03:15:10;22.10;80.40
7970;DHT22;4030;52.362;9.206;2023-08-21T03:17:36;22.10;81.30
7970;DHT22;4030;52.362;9.206;2023-08-21T03:20:02;22.10;80.40
7970;DHT22;4030;52.362;9.206;2023-08-21T03:22:30;22.10;80.50
7970;DHT22;4030;52.362;9.206;2023-08-21T03:24:57;22.10;80.60
7970;DHT22;4030;52.362;9.206;2023-08-21T03:27:24;22.00;80.50
7970;DHT22;4030;52.362;9.206;2023-08-21T03:29:50;22.00;80.60
7970;DHT22;4030;52.362;9.206;2023-08-21T03:32:16;22.00;80.70
7970;DHT22;4030;52.362;9.206;2023-08-21T03:34:43;22.00;80.70
7970;DHT22;4030;52.362;9.206;2023-08-21T03:37:09;22.00;80.70
7970;DHT22;4030;52.362;9.206;2023-08-21T03:39:35;22.00;80.70
7970;DHT22;4030;52.362;9.206;2023-08-21T03:42:01;22.00;80.80
7970;DHT22;4030;52.362;9.206;2023-08-21T03:44:26;22.00;80.90
7970;DHT22;4030;52.362;9.206;2023-08-21T03:46:52;21.90;80.90
7970;DHT22;4030;52.362;9.206;2023-08-21T03:49:18;21.90;80.90
7970;DHT22;4030;52.362;9.206;2023-08-21T03:51:43;21.90;80.90
7970;DHT22;4030;52.362;9.206;2023-08-21T03:54:09;21.90;81.00
7970;DHT22;4030;52.362;9.206;2023-08-21T03:56:36;21.90;81.00
7970;DHT22;4030;52.362;9.206;2023-08-21T03:59:02;21.90;81.10
7970;DHT22;4030;52.362;9.206;2023-08-21T04:01:28;21.80;81.10
7970;DHT22;4030;52.362;9.206;2023-08-21T04:03:53;21.80;81.10
7970;DHT22;4030;52.362;9.206;2023-08-21T04:06:19;21.90;81.30
7970;DHT22;4030;52.362;9.206;2023-08-21T04:08:45;21.80;81.30
7970;DHT22;4030;52.362;9.206;2023-08-21T04:11:10;21.90;81.40
7970;DHT22;4030;52.362;9.206;2023-08-21T04:13:36;21.90;81.50
7970;DHT22;4030;52.362;9.206;2023-08-21T04:16:03;21.90;81.50
7970;DHT22;4030;52.362;9.206;2023-08-21T04:18:29;21.90;81.60
7970;DHT22;4030;52.362;9.206;2023-08-21T04:20:54;21.80;81.50
7970;DHT22;4030;52.362;9.206;2023-08-21T04:23:20;21.80;81.70
7970;DHT22;4030;52.362;9.206;2023-08-21T04:25:46;21.80;81.70
7970;DHT22;4030;52.362;9.206;2023-08-21T04:28:11;21.80;81.70
7970;DHT22;4030;52.362;9.206;2023-08-21T04:30:40;21.80;81.80
7970;DHT22;4030;52.362;9.206;2023-08-21T04:33:07;21.80;81.90
7970;DHT22;4030;52.362;9.206;2023-08-21T04:35:37;21.80;81.90
7970;DHT22;4030;52.362;9.206;2023-08-21T04:38:04;21.80;81.90
7970;DHT22;4030;52.362;9.206;2023-08-21T04:40:30;21.80;81.90
7970;DHT22;4030;52.362;9.206;2023-08-21T04:42:55;21.80;82.10
7970;DHT22;4030;52.362;9.206;2023-08-21T04:45:21;21.80;82.10
7970;DHT22;4030;52.362;9.206;2023-08-21T04:47:47;21.80;82.10
7970;DHT22;4030;52.362;9.206;2023-08-21T04:50:12;21.80;82.10
7970;DHT22;4030;52.362;9.206;2023-08-21T04:52:38;21.70;81.90
7970;DHT22;4030;52.362;9.206;2023-08-21T04:55:05;21.80;82.10
7970;DHT22;4030;52.362;9.206;2023-08-21T04:57:32;21.80;82.10
7970;DHT22;4030;52.362;9.206;2023-08-21T04:59:57;21.70;82.10
7970;DHT22;4030;52.362;9.206;2023-08-21T05:02:23;21.80;82.20
7970;DHT22;4030;52.362;9.206;2023-08-21T05:04:49;21.70;82.10
7970;DHT22;4030;52.362;9.206;2023-08-21T05:07:15;21.80;82.20
7970;DHT22;4030;52.362;9.206;2023-08-21T05:09:41;21.90;82.30
7970;DHT22;4030;52.362;9.206;2023-08-21T05:12:07;21.80;82.30
7970;DHT22;4030;52.362;9.206;2023-08-21T05:14:33;21.80;82.20
7970;DHT22;4030;52.362;9.206;2023-08-21T05:16:59;21.80;82.20
7970;DHT22;4030;52.362;9.206;2023-08-21T05:19:24;21.80;82.20
7970;DHT22;4030;52.362;9.206;2023-08-21T05:21:50;21.80;82.30
7970;DHT22;4030;52.362;9.206;2023-08-21T05:24:16;21.90;82.40
7970;DHT22;4030;52.362;9.206;2023-08-21T05:26:41;21.90;82.50
7970;DHT22;4030;52.362;9.206;2023-08-21T05:29:07;21.90;82.40
7970;DHT22;4030;52.362;9.206;2023-08-21T05:31:33;21.90;82.50
7970;DHT22;4030;52.362;9.206;2023-08-21T05:33:59;21.90;82.60
7970;DHT22;4030;52.362;9.206;2023-08-21T05:36:25;22.00;82.60
7970;DHT22;4030;52.362;9.206;2023-08-21T05:38:50;22.00;82.60
7970;DHT22;4030;52.362;9.206;2023-08-21T05:41:17;22.00;82.60
7970;DHT22;4030;52.362;9.206;2023-08-21T05:43:43;22.00;82.70
7970;DHT22;4030;52.362;9.206;2023-08-21T05:46:08;22.00;82.70
7970;DHT22;4030;52.362;9.206;2023-08-21T05:48:34;22.10;82.80
7970;DHT22;4030;52.362;9.206;2023-08-21T05:51:00;22.10;82.90
7970;DHT22;4030;52.362;9.206;2023-08-21T05:53:26;22.10;82.80
7970;DHT22;4030;52.362;9.206;2023-08-21T05:55:52;22.20;82.90
7970;DHT22;4030;52.362;9.206;2023-08-21T05:58:19;22.20;82.90
7970;DHT22;4030;52.362;9.206;2023-08-21T06:00:46;22.20;83.00
7970;DHT22;4030;52.362;9.206;2023-08-21T06:03:11;22.20;83.00
7970;DHT22;4030;52.362;9.206;2023-08-21T06:05:37;22.20;82.80
7970;DHT22;4030;52.362;9.206;2023-08-21T06:08:03;22.30;82.90
7970;DHT22;4030;52.362;9.206;2023-08-21T06:10:31;22.30;83.00
7970;DHT22;4030;52.362;9.206;2023-08-21T06:12:57;22.30;83.00
7970;DHT22;4030;52.362;9.206;2023-08-21T06:15:22;22.30;83.10
7970;DHT22;4030;52.362;9.206;2023-08-21T06:17:48;22.30;83.20
7970;DHT22;4030;52.362;9.206;2023-08-21T06:20:14;22.30;83.20
7970;DHT22;4030;52.362;9.206;2023-08-21T06:22:40;22.40;83.20
7970;DHT22;4030;52.362;9.206;2023-08-21T06:25:05;22.40;83.10
7970;DHT22;4030;52.362;9.206;2023-08-21T06:27:33;22.50;83.10
7970;DHT22;4030;52.362;9.206;2023-08-21T06:29:58;22.50;82.90
7970;DHT22;4030;52.362;9.206;2023-08-21T06:32:24;22.60;82.90
7970;DHT22;4030;52.362;9.206;2023-08-21T06:34:50;22.60;82.70
7970;DHT22;4030;52.362;9.206;2023-08-21T06:37:16;22.70;82.70
7970;DHT22;4030;52.362;9.206;2023-08-21T06:39:41;22.70;82.60
7970;DHT22;4030;52.362;9.206;2023-08-21T06:42:07;22.80;82.70
7970;DHT22;4030;52.362;9.206;2023-08-21T06:44:33;22.80;82.70
7970;DHT22;4030;52.362;9.206;2023-08-21T06:46:58;22.80;82.70
7970;DHT22;4030;52.362;9.206;2023-08-21T06:49:24;22.90;82.60
7970;DHT22;4030;52.362;9.206;2023-08-21T06:51:50;23.00;82.70
7970;DHT22;4030;52.362;9.206;2023-08-21T06:54:16;23.00;82.60
7970;DHT22;4030;52.362;9.206;2023-08-21T06:56:43;23.10;82.70
7970;DHT22;4030;52.362;9.206;2023-08-21T06:59:09;23.20;82.70
7970;DHT22;4030;52.362;9.206;2023-08-21T07:01:35;23.30;82.60
7970;DHT22;4030;52.362;9.206;2023-08-21T07:04:01;23.40;83.00
7970;DHT22;4030;52.362;9.206;2023-08-21T07:06:30;23.50;82.50
7970;DHT22;4030;52.362;9.206;2023-08-21T07:08:56;23.60;82.50
7970;DHT22;4030;52.362;9.206;2023-08-21T07:11:22;23.70;82.40
7970;DHT22;4030;52.362;9.206;2023-08-21T07:13:48;23.80;82.30
7970;DHT22;4030;52.362;9.206;2023-08-21T07:16:14;23.90;82.30
7970;DHT22;4030;52.362;9.206;2023-08-21T07:18:40;23.90;82.40
7970;DHT22;4030;52.362;9.206;2023-08-21T07:21:05;23.90;82.40
7970;DHT22;4030;52.362;9.206;2023-08-21T07:23:31;23.90;82.50
7970;DHT22;4030;52.362;9.206;2023-08-21T07:25:58;23.90;82.50
7970;DHT22;4030;52.362;9.206;2023-08-21T07:28:24;24.00;82.70
7970;DHT22;4030;52.362;9.206;2023-08-21T07:30:59;24.00;82.70
7970;DHT22;4030;52.362;9.206;2023-08-21T07:33:27;24.00;82.80
7970;DHT22;4030;52.362;9.206;2023-08-21T07:36:05;24.00;82.80
7970;DHT22;4030;52.362;9.206;2023-08-21T07:38:31;24.00;82.90
7970;DHT22;4030;52.362;9.206;2023-08-21T07:43:30;24.00;83.10
7970;DHT22;4030;52.362;9.206;2023-08-21T07:45:55;24.00;83.10
7970;DHT22;4030;52.362;9.206;2023-08-21T07:48:21;24.00;83.20
7970;DHT22;4030;52.362;9.206;2023-08-21T07:50:51;24.00;83.20
7970;DHT22;4030;52.362;9.206;2023-08-21T07:53:18;24.00;83.30
7970;DHT22;4030;52.362;9.206;2023-08-21T07:55:44;24.00;83.30
7970;DHT22;4030;52.362;9.206;2023-08-21T07:58:11;24.00;83.30
7970;DHT22;4030;52.362;9.206;2023-08-21T08:00:37;24.00;83.30
7970;DHT22;4030;52.362;9.206;2023-08-21T08:03:04;24.10;83.40
7970;DHT22;4030;52.362;9.206;2023-08-21T08:05:31;24.10;83.30
7970;DHT22;4030;52.362;9.206;2023-08-21T08:07:58;24.10;83.40
7970;DHT22;4030;52.362;9.206;2023-08-21T08:10:24;24.20;83.40
7970;DHT22;4030;52.362;9.206;2023-08-21T08:12:51;24.20;83.40
7970;DHT22;4030;52.362;9.206;2023-08-21T08:15:17;24.20;83.40
7970;DHT22;4030;52.362;9.206;2023-08-21T08:17:43;24.20;83.40
7970;DHT22;4030;52.362;9.206;2023-08-21T08:20:11;24.20;84.40
7970;DHT22;4030;52.362;9.206;2023-08-21T08:22:37;24.20;83.60
7970;DHT22;4030;52.362;9.206;2023-08-21T08:25:04;24.20;83.60
7970;DHT22;4030;52.362;9.206;2023-08-21T08:27:31;24.30;83.60
7970;DHT22;4030;52.362;9.206;2023-08-21T08:29:58;24.30;83.60
7970;DHT22;4030;52.362;9.206;2023-08-21T08:32:25;24.40;83.70
7970;DHT22;4030;52.362;9.206;2023-08-21T08:34:54;24.40;83.60
7970;DHT22;4030;52.362;9.206;2023-08-21T08:37:20;24.50;83.50
7970;DHT22;4030;52.362;9.206;2023-08-21T08:39:47;24.60;83.30
7970;DHT22;4030;52.362;9.206;2023-08-21T08:42:13;24.60;83.10
7970;DHT22;4030;52.362;9.206;2023-08-21T08:44:41;24.70;83.10
7970;DHT22;4030;52.362;9.206;2023-08-21T08:47:09;24.70;82.80
7970;DHT22;4030;52.362;9.206;2023-08-21T08:49:37;24.80;82.70
7970;DHT22;4030;52.362;9.206;2023-08-21T08:52:04;25.00;82.60
7970;DHT22;4030;52.362;9.206;2023-08-21T08:54:30;25.10;82.50
7970;DHT22;4030;52.362;9.206;2023-08-21T08:56:57;25.20;82.50
7970;DHT22;4030;52.362;9.206;2023-08-21T08:59:23;25.40;82.40
7970;DHT22;4030;52.362;9.206;2023-08-21T09:01:49;25.60;81.90
7970;DHT22;4030;52.362;9.206;2023-08-21T09:04:15;25.80;81.60
7970;DHT22;4030;52.362;9.206;2023-08-21T09:06:41;25.90;81.00
7970;DHT22;4030;52.362;9.206;2023-08-21T09:09:07;26.00;80.40
7970;DHT22;4030;52.362;9.206;2023-08-21T09:11:39;26.00;80.10
7970;DHT22;4030;52.362;9.206;2023-08-21T09:14:08;25.90;79.20
7970;DHT22;4030;52.362;9.206;2023-08-21T09:16:35;25.90;79.60
7970;DHT22;4030;52.362;9.206;2023-08-21T09:19:01;25.90;79.80
7970;DHT22;4030;52.362;9.206;2023-08-21T09:21:28;25.80;79.50
7970;DHT22;4030;52.362;9.206;2023-08-21T09:24:01;25.80;79.90
7970;DHT22;4030;52.362;9.206;2023-08-21T09:26:31;25.90;79.70
7970;DHT22;4030;52.362;9.206;2023-08-21T09:29:04;26.00;79.50
7970;DHT22;4030;52.362;9.206;2023-08-21T09:31:33;26.10;79.50
7970;DHT22;4030;52.362;9.206;2023-08-21T09:34:03;26.20;79.40
7970;DHT22;4030;52.362;9.206;2023-08-21T09:36:33;26.20;79.30
7970;DHT22;4030;52.362;9.206;2023-08-21T09:38:59;26.30;78.60
7970;DHT22;4030;52.362;9.206;2023-08-21T09:41:26;26.30;77.10
7970;DHT22;4030;52.362;9.206;2023-08-21T09:43:52;26.30;76.80
7970;DHT22;4030;52.362;9.206;2023-08-21T09:46:24;26.30;76.80
7970;DHT22;4030;52.362;9.206;2023-08-21T09:48:52;26.30;76.90
7970;DHT22;4030;52.362;9.206;2023-08-21T09:51:18;26.30;77.20
7970;DHT22;4030;52.362;9.206;2023-08-21T09:53:44;26.40;77.50
7970;DHT22;4030;52.362;9.206;2023-08-21T09:56:11;26.40;77.60
7970;DHT22;4030;52.362;9.206;2023-08-21T09:58:37;26.30;77.50
7970;DHT22;4030;52.362;9.206;2023-08-21T10:01:07;26.30;77.50
7970;DHT22;4030;52.362;9.206;2023-08-21T10:03:43;26.30;77.30
7970;DHT22;4030;52.362;9.206;2023-08-21T10:06:16;26.30;77.00
7970;DHT22;4030;52.362;9.206;2023-08-21T10:08:46;26.40;76.50
7970;DHT22;4030;52.362;9.206;2023-08-21T10:11:14;26.40;76.40
7970;DHT22;4030;52.362;9.206;2023-08-21T10:13:41;26.40;76.20
7970;DHT22;4030;52.362;9.206;2023-08-21T10:16:07;26.40;76.00
7970;DHT22;4030;52.362;9.206;2023-08-21T10:18:35;26.40;76.00
7970;DHT22;4030;52.362;9.206;2023-08-21T10:21:18;26.30;75.70
7970;DHT22;4030;52.362;9.206;2023-08-21T10:23:49;26.30;75.70
7970;DHT22;4030;52.362;9.206;2023-08-21T10:26:19;26.30;75.60
7970;DHT22;4030;52.362;9.206;2023-08-21T10:31:41;26.20;75.20
7970;DHT22;4030;52.362;9.206;2023-08-21T10:34:12;26.20;75.20
7970;DHT22;4030;52.362;9.206;2023-08-21T10:47:32;26.40;73.60
7970;DHT22;4030;52.362;9.206;2023-08-21T10:50:05;26.40;73.40
7970;DHT22;4030;52.362;9.206;2023-08-21T10:52:38;26.50;73.00
7970;DHT22;4030;52.362;9.206;2023-08-21T10:55:09;26.50;72.60
7970;DHT22;4030;52.362;9.206;2023-08-21T10:57:35;26.60;72.50
7970;DHT22;4030;52.362;9.206;2023-08-21T11:00:12;26.60;72.40
7970;DHT22;4030;52.362;9.206;2023-08-21T11:02:40;26.70;72.50
7970;DHT22;4030;52.362;9.206;2023-08-21T11:05:09;26.80;72.40
7970;DHT22;4030;52.362;9.206;2023-08-21T11:07:46;26.90;72.40
7970;DHT22;4030;52.362;9.206;2023-08-21T11:10:15;27.00;72.20
7970;DHT22;4030;52.362;9.206;2023-08-21T11:12:51;27.10;72.10
7970;DHT22;4030;52.362;9.206;2023-08-21T11:15:21;27.30;71.90
7970;DHT22;4030;52.362;9.206;2023-08-21T11:17:57;27.50;71.60
7970;DHT22;4030;52.362;9.206;2023-08-21T11:22:59;27.80;71.00
7970;DHT22;4030;52.362;9.206;2023-08-21T11:25:31;27.90;70.90
7970;DHT22;4030;52.362;9.206;2023-08-21T11:27:57;27.90;70.80
7970;DHT22;4030;52.362;9.206;2023-08-21T11:30:23;28.00;70.60
7970;DHT22;4030;52.362;9.206;2023-08-21T11:33:03;28.00;70.60
7970;DHT22;4030;52.362;9.206;2023-08-21T11:35:33;28.00;70.60
7970;DHT22;4030;52.362;9.206;2023-08-21T11:37:58;28.00;70.40
7970;DHT22;4030;52.362;9.206;2023-08-21T11:40:24;28.00;70.30
7970;DHT22;4030;52.362;9.206;2023-08-21T11:42:51;28.00;70.30
7970;DHT22;4030;52.362;9.206;2023-08-21T11:45:20;27.90;70.20
7970;DHT22;4030;52.362;9.206;2023-08-21T11:47:47;27.90;70.40
7970;DHT22;4030;52.362;9.206;2023-08-21T11:50:14;27.90;70.30
7970;DHT22;4030;52.362;9.206;2023-08-21T11:52:43;27.90;70.30
7970;DHT22;4030;52.362;9.206;2023-08-21T11:55:09;28.00;70.10
7970;DHT22;4030;52.362;9.206;2023-08-21T11:57:51;28.10;70.10
7970;DHT22;4030;52.362;9.206;2023-08-21T12:00:18;28.10;70.10
7970;DHT22;4030;52.362;9.206;2023-08-21T12:02:58;28.10;70.10
7970;DHT22;4030;52.362;9.206;2023-08-21T12:05:26;28.10;70.00
7970;DHT22;4030;52.362;9.206;2023-08-21T12:07:53;28.20;69.80
7970;DHT22;4030;52.362;9.206;2023-08-21T12:10:27;28.30;69.50
7970;DHT22;4030;52.362;9.206;2023-08-21T12:12:53;28.30;70.30
7970;DHT22;4030;52.362;9.206;2023-08-21T12:15:19;28.40;69.10
7970;DHT22;4030;52.362;9.206;2023-08-21T12:17:45;28.50;68.70
7970;DHT22;4030;52.362;9.206;2023-08-21T12:20:11;28.60;68.40
7970;DHT22;4030;52.362;9.206;2023-08-21T12:22:38;28.70;68.30
7970;DHT22;4030;52.362;9.206;2023-08-21T12:25:05;28.80;67.90
7970;DHT22;4030;52.362;9.206;2023-08-21T12:27:31;28.80;67.50
7970;DHT22;4030;52.362;9.206;2023-08-21T12:29:57;29.10;67.10
7970;DHT22;4030;52.362;9.206;2023-08-21T12:32:22;29.20;66.80
7970;DHT22;4030;52.362;9.206;2023-08-21T12:34:48;29.30;66.50
7970;DHT22;4030;52.362;9.206;2023-08-21T12:37:14;29.50;66.20
7970;DHT22;4030;52.362;9.206;2023-08-21T12:39:40;29.60;65.90
7970;DHT22;4030;52.362;9.206;2023-08-21T12:42:05;30.00;65.50
7970;DHT22;4030;52.362;9.206;2023-08-21T12:44:33;30.20;64.90
7970;DHT22;4030;52.362;9.206;2023-08-21T12:46:59;30.50;64.50
7970;DHT22;4030;52.362;9.206;2023-08-21T12:49:25;30.80;64.10
7970;DHT22;4030;52.362;9.206;2023-08-21T12:51:51;31.00;63.50
7970;DHT22;4030;52.362;9.206;2023-08-21T12:54:17;31.20;63.10
7970;DHT22;4030;52.362;9.206;2023-08-21T12:56:43;31.30;62.90
7970;DHT22;4030;52.362;9.206;2023-08-21T12:59:08;31.50;62.40
7970;DHT22;4030;52.362;9.206;2023-08-21T13:01:34;31.80;61.80
7970;DHT22;4030;52.362;9.206;2023-08-21T13:04:01;32.00;61.00
7970;DHT22;4030;52.362;9.206;2023-08-21T13:06:28;32.30;60.30
7970;DHT22;4030;52.362;9.206;2023-08-21T13:08:54;32.60;59.70
7970;DHT22;4030;52.362;9.206;2023-08-21T13:11:20;32.90;59.30
7970;DHT22;4030;52.362;9.206;2023-08-21T13:13:45;33.10;58.90
7970;DHT22;4030;52.362;9.206;2023-08-21T13:16:11;33.30;56.70
7970;DHT22;4030;52.362;9.206;2023-08-21T13:18:37;33.10;54.00
7970;DHT22;4030;52.362;9.206;2023-08-21T13:21:03;33.10;53.30
7970;DHT22;4030;52.362;9.206;2023-08-21T13:23:29;33.10;53.20
7970;DHT22;4030;52.362;9.206;2023-08-21T13:25:56;33.00;52.80
7970;DHT22;4030;52.362;9.206;2023-08-21T13:28:23;33.00;52.80
7970;DHT22;4030;52.362;9.206;2023-08-21T13:30:49;33.00;52.50
7970;DHT22;4030;52.362;9.206;2023-08-21T13:33:15;33.10;51.70
7970;DHT22;4030;52.362;9.206;2023-08-21T13:35:46;33.10;51.70
7970;DHT22;4030;52.362;9.206;2023-08-21T13:38:13;33.20;51.30
7970;DHT22;4030;52.362;9.206;2023-08-21T13:40:39;33.20;50.40
7970;DHT22;4030;52.362;9.206;2023-08-21T13:43:06;33.40;50.90
7970;DHT22;4030;52.362;9.206;2023-08-21T13:45:33;33.50;49.80
7970;DHT22;4030;52.362;9.206;2023-08-21T13:47:59;33.50;49.50
7970;DHT22;4030;52.362;9.206;2023-08-21T13:50:24;33.60;49.90
7970;DHT22;4030;52.362;9.206;2023-08-21T13:52:50;33.70;50.10
7970;DHT22;4030;52.362;9.206;2023-08-21T13:55:16;33.80;49.00
7970;DHT22;4030;52.362;9.206;2023-08-21T13:57:42;33.90;47.80
7970;DHT22;4030;52.362;9.206;2023-08-21T14:00:09;33.90;46.70
7970;DHT22;4030;52.362;9.206;2023-08-21T14:02:40;34.00;46.50
7970;DHT22;4030;52.362;9.206;2023-08-21T14:05:07;34.10;46.40
7970;DHT22;4030;52.362;9.206;2023-08-21T14:07:34;34.20;46.60
7970;DHT22;4030;52.362;9.206;2023-08-21T14:10:00;34.40;46.50
7970;DHT22;4030;52.362;9.206;2023-08-21T14:12:28;34.50;46.60
7970;DHT22;4030;52.362;9.206;2023-08-21T14:14:54;34.80;45.60
7970;DHT22;4030;52.362;9.206;2023-08-21T14:17:20;35.30;44.50
7970;DHT22;4030;52.362;9.206;2023-08-21T14:19:46;35.80;43.50
7970;DHT22;4030;52.362;9.206;2023-08-21T14:22:11;36.30;41.70
7970;DHT22;4030;52.362;9.206;2023-08-21T14:24:37;36.70;40.80
7970;DHT22;4030;52.362;9.206;2023-08-21T14:27:03;36.70;40.80
7970;DHT22;4030;52.362;9.206;2023-08-21T14:29:29;36.40;41.10
7970;DHT22;4030;52.362;9.206;2023-08-21T14:31:54;35.80;41.10
7970;DHT22;4030;52.362;9.206;2023-08-21T14:34:21;35.60;41.10
7970;DHT22;4030;52.362;9.206;2023-08-21T14:36:49;35.40;41.60
7970;DHT22;4030;52.362;9.206;2023-08-21T14:39:15;35.30;42.10
7970;DHT22;4030;52.362;9.206;2023-08-21T14:41:42;35.10;42.60
7970;DHT22;4030;52.362;9.206;2023-08-21T14:44:08;34.80;42.40
7970;DHT22;4030;52.362;9.206;2023-08-21T14:46:34;34.50;42.90
7970;DHT22;4030;52.362;9.206;2023-08-21T14:49:00;34.30;43.90
7970;DHT22;4030;52.362;9.206;2023-08-21T14:51:26;34.00;44.20
7970;DHT22;4030;52.362;9.206;2023-08-21T14:53:52;33.70;44.70
7970;DHT22;4030;52.362;9.206;2023-08-21T14:56:19;33.40;45.20
7970;DHT22;4030;52.362;9.206;2023-08-21T14:58:46;33.00;45.30
7970;DHT22;4030;52.362;9.206;2023-08-21T15:01:12;32.80;45.90
7970;DHT22;4030;52.362;9.206;2023-08-21T15:03:37;32.60;46.60
7970;DHT22;4030;52.362;9.206;2023-08-21T15:06:03;32.40;47.00
7970;DHT22;4030;52.362;9.206;2023-08-21T15:08:29;32.40;47.40
7970;DHT22;4030;52.362;9.206;2023-08-21T15:10:55;32.30;47.70
7970;DHT22;4030;52.362;9.206;2023-08-21T15:13:21;32.30;47.90
7970;DHT22;4030;52.362;9.206;2023-08-21T15:15:47;32.20;48.10
7970;DHT22;4030;52.362;9.206;2023-08-21T15:18:13;32.20;48.50
7970;DHT22;4030;52.362;9.206;2023-08-21T15:20:38;32.00;48.80
7970;DHT22;4030;52.362;9.206;2023-08-21T15:23:04;31.90;48.80
7970;DHT22;4030;52.362;9.206;2023-08-21T15:25:30;31.80;49.00
7970;DHT22;4030;52.362;9.206;2023-08-21T15:27:55;31.80;48.80
7970;DHT22;4030;52.362;9.206;2023-08-21T15:30:21;31.70;49.00
7970;DHT22;4030;52.362;9.206;2023-08-21T15:32:47;31.60;49.00
7970;DHT22;4030;52.362;9.206;2023-08-21T15:35:13;31.60;48.80
7970;DHT22;4030;52.362;9.206;2023-08-21T15:37:40;31.60;48.90
7970;DHT22;4030;52.362;9.206;2023-08-21T15:40:07;31.60;49.00
7970;DHT22;4030;52.362;9.206;2023-08-21T15:42:33;31.60;49.10
7970;DHT22;4030;52.362;9.206;2023-08-21T15:44:59;31.50;49.10
7970;DHT22;4030;52.362;9.206;2023-08-21T15:47:24;31.50;49.30
7970;DHT22;4030;52.362;9.206;2023-08-21T15:49:50;31.40;49.30
7970;DHT22;4030;52.362;9.206;2023-08-21T15:52:16;31.40;49.50
7970;DHT22;4030;52.362;9.206;2023-08-21T15:54:41;31.30;49.20
7970;DHT22;4030;52.362;9.206;2023-08-21T15:57:07;31.30;49.20
7970;DHT22;4030;52.362;9.206;2023-08-21T15:59:33;31.20;49.20
7970;DHT22;4030;52.362;9.206;2023-08-21T16:01:59;31.20;49.40
7970;DHT22;4030;52.362;9.206;2023-08-21T16:04:25;31.10;49.60
7970;DHT22;4030;52.362;9.206;2023-08-21T16:06:50;31.00;49.80
7970;DHT22;4030;52.362;9.206;2023-08-21T16:09:17;31.00;50.10
7970;DHT22;4030;52.362;9.206;2023-08-21T16:11:45;30.90;50.80
7970;DHT22;4030;52.362;9.206;2023-08-21T16:14:11;30.80;50.50
7970;DHT22;4030;52.362;9.206;2023-08-21T16:16:38;30.80;50.80
7970;DHT22;4030;52.362;9.206;2023-08-21T16:19:04;30.70;51.00
7970;DHT22;4030;52.362;9.206;2023-08-21T16:21:30;30.60;51.10
7970;DHT22;4030;52.362;9.206;2023-08-21T16:23:56;30.50;51.20